Terminal Aerodrome Forecast
Issued by NWS Sterling, VA

Home | Current Version | Previous Version | Text Only | Print | Product List | Glossary On
Versions: 1 2 3 4 5 6 7 8 9 10 11 12 13 14 15 16 17 18 19 20 21 22 23
891
FTUS41 KLWX 022305 AAB
TAFBWI
TAF AMD
KBWI 022305Z 0223/0324 15005KT P6SM VCTS SCT040CB
      TEMPO 0223/0224 VRB20KT 3SM -TSRA
     FM030000 VRB03KT 3SM -SHRA VCTS OVC060CB
     FM030600 04005KT 3SM -RA OVC003
     FM031200 35009KT 2SM RA OVC003
     FM031400 36007KT 6SM -SHRA OVC015
     FM031900 02004KT P6SM BKN025=

USA.gov is the U.S. government's official web portal to all federal, state and local government web resources and services.